Time;durP1;ratioP1;P1;durP2;ratioP2;P2;SDS_P1;SDS_P2;PMS_P1;PMS_P2;Temp;Humidity;BMP_temperature;BMP_pressure;BME280_temperature;BME280_humidity;BME280_pressure;Samples;Min_cycle;Max_cycle;Signal;HPM_P1;HPM_P2
2021/12/07 00:02:25;;;;;;;4.90;3.42;;;;;;;1.21;99.94;98224.56;5013449;28;20041;-60
2021/12/07 00:04:50;;;;;;;4.40;2.75;;;;;;;1.20;100.00;98228.19;5010322;28;20121;-60
2021/12/07 00:07:17;;;;;;;5.03;2.97;;;;;;;1.20;100.00;98220.28;5005471;28;20041;-60
2021/12/07 00:09:45;;;;;;;6.43;2.90;;;;;;;1.15;100.00;98236.75;5006626;28;20395;-59
2021/12/07 00:12:12;;;;;;;4.43;2.53;;;;;;;1.02;100.00;98242.88;5020271;28;20484;-60
2021/12/07 00:14:40;;;;;;;2.60;1.73;;;;;;;0.88;100.00;98230.69;5009329;28;20033;-60
2021/12/07 00:17:05;;;;;;;2.70;1.90;;;;;;;0.74;100.00;98240.44;5006571;28;20050;-60
2021/12/07 00:19:31;;;;;;;2.63;1.60;;;;;;;0.65;100.00;98246.94;5006401;28;20066;-60
2021/12/07 00:21:56;;;;;;;4.10;1.83;;;;;;;0.54;100.00;98239.63;5010222;28;20540;-60
2021/12/07 00:24:22;;;;;;;3.10;1.50;;;;;;;0.48;100.00;98243.06;5019412;28;20038;-59
2021/12/07 00:26:48;;;;;;;1.70;1.35;;;;;;;0.43;100.00;98243.69;5006660;28;20083;-60
2021/12/07 00:29:13;;;;;;;3.30;1.63;;;;;;;0.41;100.00;98259.69;5012077;28;20404;-60
2021/12/07 00:31:46;;;;;;;2.00;1.58;;;;;;;0.31;100.00;98245.28;5014071;28;20056;-60
2021/12/07 00:36:56;;;;;;;1.27;1.17;;;;;;;0.20;100.00;98260.66;5004100;28;20049;-60
2021/12/07 00:39:22;;;;;;;1.25;1.05;;;;;;;0.20;100.00;98254.56;5010952;28;20069;-59
2021/12/07 00:41:48;;;;;;;2.20;1.50;;;;;;;0.16;100.00;98250.72;5017917;28;20038;-60
2021/12/07 00:44:14;;;;;;;2.63;1.48;;;;;;;0.11;100.00;98243.41;5008534;28;20475;-60
2021/12/07 00:46:40;;;;;;;1.45;1.27;;;;;;;0.14;100.00;98250.91;5004695;28;20118;-59
2021/12/07 00:49:05;;;;;;;1.73;1.50;;;;;;;0.06;100.00;98243.19;5012462;28;20136;-60
2021/12/07 00:51:31;;;;;;;3.05;1.65;;;;;;;0.04;100.00;98233.88;5004419;28;20049;-60
2021/12/07 00:53:56;;;;;;;2.45;1.50;;;;;;;0.10;100.00;98235.69;5008875;28;20827;-59
2021/12/07 00:56:22;;;;;;;2.17;1.70;;;;;;;0.15;100.00;98235.91;5011016;28;20755;-60
2021/12/07 00:58:48;;;;;;;3.45;1.50;;;;;;;0.16;100.00;98238.34;5006681;28;20107;-59
2021/12/07 01:01:14;;;;;;;2.50;1.70;;;;;;;0.24;100.00;98236.53;5007107;28;20038;-60
2021/12/07 01:03:40;;;;;;;6.28;2.67;;;;;;;0.37;100.00;98234.72;5004621;28;20034;-60
2021/12/07 01:24:57;;;;;;;3.30;1.95;;;;;;;1.28;100.00;98288.72;5011047;28;20098;-61
2021/12/07 01:27:23;;;;;;;5.05;2.10;;;;;;;1.22;100.00;98292.16;5004765;28;20045;-62
2021/12/07 01:30:00;;;;;;;3.72;2.30;;;;;;;1.33;100.00;98296.03;4990652;28;20042;-61
2021/12/07 01:32:50;;;;;;;3.30;1.90;;;;;;;1.53;100.00;98298.63;5003197;28;21047;-61
2021/12/07 01:35:46;;;;;;;4.13;2.13;;;;;;;1.54;99.73;98310.81;5003299;28;20053;-61
2021/12/07 01:41:06;;;;;;;10.63;2.75;;;;;;;1.73;99.90;98329.25;5004968;28;20044;-60
2021/12/07 01:59:35;;;;;;;6.75;2.88;;;;;;;2.03;98.96;98349.09;5008839;28;20064;-61
2021/12/07 02:02:09;;;;;;;11.82;3.10;;;;;;;2.06;98.66;98348.66;5006666;28;20033;-61
2021/12/07 02:04:35;;;;;;;9.98;3.20;;;;;;;2.18;98.54;98362.84;5016434;28;20115;-61
2021/12/07 02:07:00;;;;;;;9.23;3.00;;;;;;;2.16;98.14;98349.03;5014105;28;20054;-61
2021/12/07 02:09:26;;;;;;;13.50;2.97;;;;;;;2.28;97.18;98373.78;5015799;28;20436;-61
2021/12/07 02:11:58;;;;;;;7.10;2.67;;;;;;;2.41;95.73;98377.41;5004133;28;20205;-61
2021/12/07 02:14:23;;;;;;;7.65;2.60;;;;;;;2.30;96.67;98377.03;5001397;28;20056;-60
2021/12/07 02:16:57;;;;;;;7.18;2.80;;;;;;;2.27;97.37;98382.75;5017233;28;20050;-60
2021/12/07 02:19:22;;;;;;;7.60;2.95;;;;;;;2.22;97.26;98390.50;5012468;28;20064;-60
2021/12/07 02:21:48;;;;;;;9.00;2.58;;;;;;;2.20;97.32;98395.19;5007788;28;20826;-59
2021/12/07 02:24:14;;;;;;;12.50;3.22;;;;;;;2.23;98.10;98386.03;5002838;28;20034;-59
2021/12/07 02:26:39;;;;;;;8.68;2.60;;;;;;;2.22;97.72;98398.44;5002693;28;20678;-61
2021/12/07 02:29:05;;;;;;;9.90;3.22;;;;;;;2.25;97.72;98410.44;5016667;28;20371;-59
2021/12/07 02:31:31;;;;;;;7.00;3.00;;;;;;;2.25;97.55;98419.16;5010627;28;20503;-59
2021/12/07 02:33:56;;;;;;;8.18;3.35;;;;;;;2.27;97.61;98419.78;5010021;28;20040;-61
2021/12/07 02:36:22;;;;;;;9.63;2.80;;;;;;;2.27;97.27;98425.06;5015353;28;20084;-61
2021/12/07 02:38:47;;;;;;;8.85;2.80;;;;;;;2.30;97.57;98427.28;5011588;28;20037;-61
2021/12/07 02:41:13;;;;;;;12.13;2.97;;;;;;;2.24;96.95;98425.47;5010765;28;20530;-61
2021/12/07 02:43:38;;;;;;;7.47;2.50;;;;;;;2.26;97.24;98439.28;5003338;28;20064;-61
2021/12/07 02:46:04;;;;;;;9.35;2.40;;;;;;;2.30;97.43;98445.81;5002857;28;20053;-61
2021/12/07 02:48:30;;;;;;;7.43;2.67;;;;;;;2.34;97.14;98440.91;5003207;28;20058;-61
2021/12/07 02:50:56;;;;;;;8.40;2.83;;;;;;;2.34;96.96;98446.19;5002714;28;20042;-59
2021/12/07 02:53:24;;;;;;;9.60;2.53;;;;;;;2.29;96.82;98448.63;5002984;28;20080;-61
2021/12/07 02:55:50;;;;;;;5.82;2.80;;;;;;;2.34;96.60;98454.13;5004368;28;20073;-61
2021/12/07 02:58:16;;;;;;;7.30;2.70;;;;;;;2.35;96.58;98459.22;5006903;28;20045;-60
2021/12/07 03:00:49;;;;;;;5.82;2.33;;;;;;;2.29;96.42;98464.50;5013398;28;20053;-61
2021/12/07 03:03:15;;;;;;;10.10;3.00;;;;;;;2.23;97.04;98466.16;5012583;28;20770;-61
2021/12/07 03:05:59;;;;;;;7.68;2.33;;;;;;;2.23;97.29;98476.72;5001868;28;20515;-60
2021/12/07 03:09:02;;;;;;;6.70;2.70;;;;;;;2.33;97.75;98481.59;5009133;28;20041;-59
2021/12/07 03:27:49;;;;;;;8.00;2.92;;;;;;;2.24;96.82;98494.22;5013205;28;20084;-59
2021/12/07 03:30:14;;;;;;;12.30;3.10;;;;;;;2.24;96.37;98494.22;5011036;28;20033;-60
2021/12/07 03:32:40;;;;;;;9.70;3.35;;;;;;;2.24;96.43;98496.84;5002331;28;20084;-59
2021/12/07 03:35:06;;;;;;;9.25;2.50;;;;;;;2.28;95.27;98513.13;5003383;28;20793;-60
2021/12/07 03:37:31;;;;;;;12.70;2.70;;;;;;;2.31;94.97;98505.59;5010249;28;20035;-59
2021/12/07 03:39:57;;;;;;;8.35;2.75;;;;;;;2.31;94.05;98505.59;5007105;28;20437;-61
2021/12/07 03:42:22;;;;;;;15.13;3.55;;;;;;;2.37;93.60;98523.28;5000953;28;20042;-61
2021/12/07 03:44:48;;;;;;;8.82;2.92;;;;;;;2.45;93.07;98521.44;5015928;28;20050;-61
2021/12/07 03:47:13;;;;;;;17.25;3.33;;;;;;;2.41;92.47;98531.63;5002011;28;20496;-61
2021/12/07 03:49:39;;;;;;;11.48;3.30;;;;;;;2.36;93.16;98540.16;5002439;28;20045;-60
2021/12/07 03:52:05;;;;;;;10.40;3.13;;;;;;;2.40;92.66;98534.44;5003343;28;20200;-60
2021/12/07 03:54:30;;;;;;;9.73;3.17;;;;;;;2.45;92.41;98547.91;5001179;28;20045;-60
2021/12/07 03:56:56;;;;;;;13.73;3.25;;;;;;;2.46;92.30;98549.50;5006555;28;20073;-60
2021/12/07 03:59:21;;;;;;;12.55;3.25;;;;;;;2.45;93.24;98553.19;4991192;28;20037;-60
2021/12/07 04:01:47;;;;;;;14.02;3.55;;;;;;;2.48;92.69;98564.16;5006506;28;20093;-61
2021/12/07 04:04:13;;;;;;;14.15;3.20;;;;;;;2.48;92.99;98579.22;5013376;28;20076;-61
2021/12/07 04:06:38;;;;;;;8.15;3.22;;;;;;;2.40;93.64;98579.41;5000633;28;20053;-61
2021/12/07 04:09:04;;;;;;;13.05;3.78;;;;;;;2.31;94.00;98584.13;5013239;28;20109;-60
2021/12/07 04:11:29;;;;;;;14.07;3.78;;;;;;;2.22;94.55;98585.34;5003222;28;20501;-60
2021/12/07 04:13:55;;;;;;;12.50;3.58;;;;;;;2.19;94.95;98583.91;5008119;28;20036;-60
2021/12/07 04:16:20;;;;;;;12.98;3.50;;;;;;;2.09;95.49;98592.25;5008527;28;20045;-60
2021/12/07 04:18:46;;;;;;;11.05;3.10;;;;;;;2.04;95.86;98585.94;5014616;28;20029;-60
2021/12/07 04:21:11;;;;;;;11.23;3.90;;;;;;;2.12;96.79;98591.03;5010485;28;20042;-60
2021/12/07 04:23:37;;;;;;;16.55;3.50;;;;;;;2.05;96.03;98592.88;5020409;28;20037;-61
2021/12/07 04:26:05;;;;;;;15.63;3.45;;;;;;;2.08;95.05;98590.63;5021544;28;20049;-61
2021/12/07 04:28:31;;;;;;;12.43;3.60;;;;;;;2.05;94.68;98582.31;5005493;28;20034;-61
2021/12/07 04:30:56;;;;;;;11.63;3.40;;;;;;;1.97;94.89;98593.06;5010117;28;20045;-60
2021/12/07 04:33:22;;;;;;;13.77;3.60;;;;;;;1.85;95.54;98596.31;5007181;28;20028;-61
2021/12/07 04:35:49;;;;;;;11.23;3.28;;;;;;;1.83;95.35;98602.81;5005701;28;20489;-60
2021/12/07 04:38:15;;;;;;;12.13;3.25;;;;;;;1.93;94.64;98614.63;5003088;28;20053;-61
2021/12/07 04:40:40;;;;;;;12.32;3.35;;;;;;;1.91;94.14;98608.72;5017444;28;20492;-60
2021/12/07 04:43:07;;;;;;;10.68;3.00;;;;;;;2.04;93.79;98615.03;5007653;28;20058;-61
2021/12/07 04:58:25;;;;;;;17.05;3.67;;;;;;;2.05;94.33;98622.78;5011596;28;20036;-61
2021/12/07 05:00:51;;;;;;;11.55;3.20;;;;;;;2.07;93.60;98630.47;5005076;28;20042;-61
2021/12/07 05:03:16;;;;;;;11.80;3.78;;;;;;;2.03;93.36;98630.09;5009164;28;20113;-61
2021/12/07 05:05:47;;;;;;;11.48;3.25;;;;;;;2.09;93.09;98639.03;5007424;28;20141;-61
2021/12/07 05:08:16;;;;;;;15.05;3.90;;;;;;;2.12;92.49;98643.91;5010053;28;20036;-61
2021/12/07 05:34:37;;;;;;;10.90;2.90;;;;;;;1.99;94.01;98692.28;5023872;28;20040;-60
2021/12/07 05:39:50;;;;;;;9.27;3.45;;;;;;;2.00;93.06;98682.50;5009149;28;20117;-62
2021/12/07 05:42:15;;;;;;;12.40;4.03;;;;;;;1.97;92.92;98688.22;5015086;28;20141;-61
2021/12/07 05:44:41;;;;;;;11.88;3.00;;;;;;;1.95;92.93;98685.78;5010672;28;20531;-62
2021/12/07 05:47:07;;;;;;;11.40;2.95;;;;;;;1.88;92.75;98688.41;5002552;28;20068;-61
2021/12/07 05:49:34;;;;;;;16.20;3.38;;;;;;;1.86;93.04;98686.97;5008719;28;20033;-62
2021/12/07 05:51:59;;;;;;;16.77;3.97;;;;;;;1.89;92.47;98692.66;5002297;28;20049;-60
2021/12/07 05:54:25;;;;;;;15.93;3.72;;;;;;;1.84;92.85;98695.09;5004955;28;20113;-60
2021/12/07 05:56:50;;;;;;;15.80;2.95;;;;;;;1.81;92.45;98689.41;5004308;28;20531;-60
2021/12/07 05:59:16;;;;;;;12.35;4.57;;;;;;;1.77;92.78;98707.47;5011082;28;20499;-61
2021/12/07 06:01:41;;;;;;;16.98;3.70;;;;;;;1.80;92.79;98706.25;5002796;28;20542;-60
2021/12/07 06:04:07;;;;;;;12.32;3.60;;;;;;;1.69;93.20;98707.66;5003809;28;20060;-60
2021/12/07 06:06:33;;;;;;;11.55;3.83;;;;;;;1.70;93.27;98709.28;5010805;28;20152;-60
2021/12/07 06:08:58;;;;;;;17.23;3.38;;;;;;;1.70;93.19;98717.22;5014309;28;20035;-60
2021/12/07 06:11:24;;;;;;;13.40;3.63;;;;;;;1.77;92.35;98714.59;5005489;28;20037;-60
2021/12/07 06:13:50;;;;;;;13.93;3.40;;;;;;;1.71;92.41;98722.28;5006492;28;20056;-60
2021/12/07 06:16:16;;;;;;;17.60;4.05;;;;;;;1.70;92.22;98749.72;5006662;28;20499;-60
2021/12/07 06:18:43;;;;;;;12.50;2.90;;;;;;;1.64;92.18;98747.06;5017778;28;20040;-60
2021/12/07 06:21:09;;;;;;;14.90;3.03;;;;;;;1.62;92.66;98744.63;5008453;28;20571;-60
2021/12/07 06:23:34;;;;;;;8.35;2.78;;;;;;;1.61;92.20;98758.00;5002153;28;20088;-60
2021/12/07 06:26:00;;;;;;;9.23;2.90;;;;;;;1.56;92.12;98757.78;5001239;28;20387;-60
2021/12/07 06:28:25;;;;;;;14.23;3.40;;;;;;;1.64;92.59;98752.34;5001919;28;20357;-60
2021/12/07 06:30:51;;;;;;;11.88;3.70;;;;;;;1.77;92.11;98757.66;5011019;28;20041;-60
2021/12/07 06:33:18;;;;;;;15.10;3.00;;;;;;;1.70;91.23;98770.88;5006440;28;20018;-60
2021/12/07 06:35:44;;;;;;;11.35;3.03;;;;;;;1.61;91.24;98768.59;5002911;28;20049;-61
2021/12/07 06:38:09;;;;;;;6.90;2.75;;;;;;;1.66;92.46;98774.09;5009353;28;20126;-61
2021/12/07 06:40:35;;;;;;;12.32;3.03;;;;;;;1.64;91.84;98784.84;5019312;28;20050;-60
2021/12/07 06:43:01;;;;;;;10.63;3.03;;;;;;;1.60;91.25;98785.44;5013940;28;20036;-60
2021/12/07 06:45:28;;;;;;;17.55;6.75;;;;;;;1.51;91.89;98796.16;5015311;28;20091;-61
2021/12/07 06:47:54;;;;;;;10.68;3.05;;;;;;;1.52;91.45;98807.53;5009081;28;20057;-60
2021/12/07 06:50:19;;;;;;;17.88;6.50;;;;;;;1.45;92.26;98796.94;5008115;28;20447;-61
2021/12/07 06:52:45;;;;;;;12.02;4.10;;;;;;;1.38;92.83;98792.63;5005991;28;20440;-61
2021/12/07 06:55:10;;;;;;;11.70;3.75;;;;;;;1.29;93.19;98807.81;5009451;28;20022;-61
2021/12/07 06:57:36;;;;;;;14.35;3.20;;;;;;;1.20;93.09;98787.81;5014508;28;20668;-61
2021/12/07 07:00:04;;;;;;;14.18;2.88;;;;;;;1.21;92.95;98784.19;5004594;28;20468;-61
2021/12/07 07:02:29;;;;;;;14.32;3.53;;;;;;;0.93;93.09;98800.84;5006119;28;20073;-60
2021/12/07 07:04:55;;;;;;;12.02;3.45;;;;;;;0.61;94.83;98799.53;5017233;28;20045;-60
2021/12/07 07:07:22;;;;;;;12.48;2.90;;;;;;;0.52;95.39;98801.47;5004940;28;20046;-60
2021/12/07 07:09:48;;;;;;;7.97;2.60;;;;;;;0.32;96.54;98803.91;5002479;28;20030;-61
2021/12/07 07:12:14;;;;;;;13.10;4.07;;;;;;;0.34;96.66;98807.19;5001704;28;20119;-60
2021/12/07 07:14:39;;;;;;;13.48;3.00;;;;;;;0.24;97.24;98803.22;5005074;28;20038;-61
2021/12/07 07:17:05;;;;;;;8.73;3.55;;;;;;;0.31;97.06;98810.19;5001854;28;20048;-60
2021/12/07 07:19:30;;;;;;;21.65;4.72;;;;;;;0.37;97.41;98819.97;5007778;28;20036;-61
2021/12/07 07:21:58;;;;;;;9.55;3.50;;;;;;;0.44;96.47;98809.50;5005249;28;20114;-61
2021/12/07 07:24:24;;;;;;;8.75;3.05;;;;;;;0.54;96.17;98815.28;4999975;28;20030;-60
2021/12/07 07:26:49;;;;;;;6.72;2.42;;;;;;;0.51;96.58;98822.78;5011222;28;20060;-60
2021/12/07 07:29:15;;;;;;;12.05;4.70;;;;;;;0.51;96.66;98813.03;5013437;28;20128;-60
2021/12/07 07:31:41;;;;;;;12.68;4.80;;;;;;;0.46;97.19;98819.88;5007117;28;20034;-61
2021/12/07 07:34:06;;;;;;;13.95;4.75;;;;;;;0.39;97.21;98832.97;5015663;28;20044;-62
2021/12/07 07:36:32;;;;;;;12.93;4.35;;;;;;;0.39;97.26;98828.53;5006969;28;20038;-61
2021/12/07 07:38:57;;;;;;;16.23;3.90;;;;;;;0.34;97.68;98820.34;5009525;28;20061;-60
2021/12/07 07:41:24;;;;;;;9.55;3.53;;;;;;;0.38;97.31;98834.00;5000628;28;20070;-60
2021/12/07 07:43:49;;;;;;;9.95;2.78;;;;;;;0.38;98.09;98841.91;5010792;28;20059;-61
2021/12/07 07:46:15;;;;;;;8.45;2.95;;;;;;;0.48;98.00;98834.50;5014276;28;20264;-61
2021/12/07 07:48:40;;;;;;;15.63;3.95;;;;;;;0.43;98.00;98836.91;5013183;28;20030;-60
2021/12/07 07:51:06;;;;;;;12.07;4.03;;;;;;;0.47;97.49;98835.50;5006976;28;20029;-60
2021/12/07 07:53:32;;;;;;;10.85;3.38;;;;;;;0.52;97.38;98843.66;5011324;28;20487;-61
2021/12/07 07:55:57;;;;;;;16.00;4.28;;;;;;;0.57;97.26;98835.19;5005343;28;20731;-60
2021/12/07 07:58:23;;;;;;;14.90;4.07;;;;;;;0.67;97.12;98835.69;5003549;28;20024;-61
2021/12/07 08:00:48;;;;;;;19.08;5.30;;;;;;;0.75;96.68;98832.13;5005013;28;20038;-60
2021/12/07 08:03:14;;;;;;;10.75;3.63;;;;;;;0.95;95.96;98845.50;5004895;28;20623;-60
2021/12/07 08:05:39;;;;;;;9.90;4.88;;;;;;;0.97;95.60;98846.13;5009524;28;20136;-61
2021/12/07 08:08:05;;;;;;;12.00;4.00;;;;;;;1.05;95.10;98854.75;5015972;28;20054;-60
2021/12/07 08:10:31;;;;;;;9.93;3.75;;;;;;;1.11;94.82;98860.25;5010524;28;20061;-60
2021/12/07 08:13:01;;;;;;;14.50;4.57;;;;;;;1.07;94.90;98857.19;5015462;28;20550;-60
2021/12/07 08:15:28;;;;;;;9.77;3.50;;;;;;;1.10;95.00;98854.19;5022456;28;20033;-60
2021/12/07 08:17:54;;;;;;;14.30;4.43;;;;;;;1.16;94.74;98857.88;5006005;28;20068;-61
2021/12/07 08:20:19;;;;;;;14.43;4.07;;;;;;;1.08;94.68;98854.34;5006616;28;20452;-61
2021/12/07 08:22:45;;;;;;;12.27;3.30;;;;;;;1.15;94.11;98854.41;5004653;28;20498;-61
2021/12/07 08:25:10;;;;;;;14.75;4.70;;;;;;;1.15;94.08;98853.56;5011427;28;20037;-60
2021/12/07 08:27:36;;;;;;;8.57;3.20;;;;;;;1.24;93.99;98861.16;5010818;28;20463;-61
2021/12/07 08:30:04;;;;;;;11.68;4.60;;;;;;;1.37;93.57;98857.81;5007195;28;20053;-60
2021/12/07 08:32:29;;;;;;;10.55;4.65;;;;;;;1.38;93.98;98862.09;5012346;28;20056;-60
2021/12/07 08:34:55;;;;;;;11.20;4.40;;;;;;;1.55;93.10;98865.28;5001496;28;20107;-60
2021/12/07 08:37:20;;;;;;;6.72;2.33;;;;;;;1.48;93.02;98859.94;5014228;28;20073;-60
2021/12/07 08:39:46;;;;;;;43.90;8.10;;;;;;;1.58;93.38;98850.88;5020389;28;20539;-61
2021/12/07 08:42:11;;;;;;;15.95;4.65;;;;;;;1.58;92.98;98864.06;5006110;28;20112;-61
2021/12/07 08:44:37;;;;;;;27.25;5.82;;;;;;;1.70;92.44;98867.81;5010380;28;20046;-61
2021/12/07 08:47:03;;;;;;;28.23;5.03;;;;;;;1.89;91.73;98859.16;5004019;28;20077;-61
2021/12/07 08:49:29;;;;;;;14.88;4.10;;;;;;;2.39;89.64;98856.31;5011019;28;20071;-60
2021/12/07 08:51:54;;;;;;;11.95;4.03;;;;;;;2.84;88.13;98859.28;5015372;28;20225;-60
2021/12/07 09:02:03;;;;;;;12.50;3.50;;;;;;;3.31;84.48;98886.63;5005794;28;20812;-59
2021/12/07 09:04:29;;;;;;;3.53;2.30;;;;;;;3.23;84.09;98884.19;5006347;28;20069;-60
2021/12/07 09:06:54;;;;;;;7.72;3.47;;;;;;;3.93;82.00;98884.53;5003534;28;20711;-60
2021/12/07 09:09:20;;;;;;;16.48;3.88;;;;;;;3.85;82.26;98892.72;5003468;28;20041;-60
2021/12/07 09:11:46;;;;;;;11.43;3.00;;;;;;;4.18;80.62;98895.28;5009467;28;20141;-60
2021/12/07 09:14:14;;;;;;;16.50;3.63;;;;;;;3.80;81.51;98900.47;5004980;28;20036;-60
2021/12/07 09:16:40;;;;;;;7.03;3.30;;;;;;;4.09;81.79;98905.31;5014221;28;20157;-60
2021/12/07 09:19:06;;;;;;;8.63;3.40;;;;;;;4.64;79.14;98904.06;5008781;28;20038;-60
2021/12/07 09:21:31;;;;;;;7.78;3.30;;;;;;;3.91;81.41;98907.78;5002860;28;20404;-59
2021/12/07 09:23:57;;;;;;;9.93;3.40;;;;;;;4.19;80.87;98919.94;5008639;28;20112;-60
2021/12/07 09:26:22;;;;;;;9.30;3.55;;;;;;;4.42;80.10;98914.16;5012510;28;20175;-60
2021/12/07 09:28:48;;;;;;;13.48;3.67;;;;;;;4.59;79.69;98909.19;5008668;28;20057;-61
2021/12/07 09:31:14;;;;;;;13.57;3.78;;;;;;;4.83;78.34;98905.81;5004411;28;20112;-61
2021/12/07 09:33:41;;;;;;;13.18;5.35;;;;;;;4.85;78.06;98903.75;5013069;28;20057;-60
2021/12/07 09:36:11;;;;;;;14.98;6.97;;;;;;;5.00;77.07;98897.34;5004124;28;20046;-60
2021/12/07 09:38:36;;;;;;;10.45;3.75;;;;;;;5.05;76.74;98897.50;5004124;28;20052;-60
2021/12/07 09:41:03;;;;;;;19.30;4.40;;;;;;;4.98;75.22;98893.03;5003716;28;20499;-60
2021/12/07 09:43:29;;;;;;;11.90;3.40;;;;;;;4.82;76.26;98888.25;5010418;28;20107;-60
2021/12/07 09:45:54;;;;;;;10.98;4.07;;;;;;;5.37;74.82;98885.81;5014616;28;20080;-60
2021/12/07 09:48:20;;;;;;;10.07;3.40;;;;;;;5.40;72.90;98882.72;5004515;28;20101;-60
2021/12/07 09:50:47;;;;;;;7.40;2.42;;;;;;;4.62;75.27;98887.53;5012526;28;20049;-60
2021/12/07 09:53:13;;;;;;;9.52;3.22;;;;;;;5.01;76.07;98885.69;5004675;28;20030;-60
2021/12/07 09:55:39;;;;;;;13.25;3.50;;;;;;;5.39;72.61;98882.94;5004565;28;20376;-61
2021/12/07 09:58:05;;;;;;;13.23;3.95;;;;;;;5.14;74.56;98883.75;5004155;28;20077;-60
2021/12/07 10:00:30;;;;;;;17.50;3.55;;;;;;;5.41;74.23;98883.53;5002295;28;20049;-61
2021/12/07 10:02:56;;;;;;;12.30;3.20;;;;;;;5.75;73.24;98892.84;5003844;28;20076;-60
2021/12/07 10:05:22;;;;;;;9.82;2.67;;;;;;;4.92;73.09;98893.09;5008692;28;20056;-60
2021/12/07 10:07:49;;;;;;;9.95;3.33;;;;;;;5.26;73.79;98897.13;5013367;28;20048;-61
2021/12/07 10:10:29;;;;;;;9.32;4.00;;;;;;;5.44;72.74;98892.91;5016213;28;20026;-60
2021/12/07 10:12:54;;;;;;;;;;;;;;;6.17;70.47;98887.75;5005010;28;20456;-60
2021/12/07 10:15:20;;;;;;;15.02;4.13;;;;;;;5.28;75.20;98876.47;5004178;28;19929;-60
2021/12/07 10:18:07;;;;;;;11.30;3.40;;;;;;;5.17;73.78;98878.00;5009569;28;20116;-61
2021/12/07 10:21:03;;;;;;;13.65;3.95;;;;;;;5.61;72.85;98876.19;5011748;28;20562;-60
2021/12/07 10:23:46;;;;;;;13.68;4.13;;;;;;;5.06;74.85;98877.88;5002179;28;20037;-60
2021/12/07 10:26:18;;;;;;;13.15;3.90;;;;;;;5.32;73.82;98869.72;5016892;28;20093;-60
2021/12/07 10:28:51;;;;;;;12.00;4.40;;;;;;;5.86;71.53;98872.69;5003960;28;20069;-60
2021/12/07 10:31:37;;;;;;;8.80;3.00;;;;;;;5.57;73.08;98874.22;5012707;28;20034;-60
2021/12/07 10:34:07;;;;;;;8.60;3.45;;;;;;;5.30;74.39;98873.63;5002863;28;20040;-60
2021/12/07 10:36:34;;;;;;;11.07;3.13;;;;;;;5.34;72.45;98865.00;5001997;28;20412;-60
2021/12/07 10:39:07;;;;;;;8.40;3.75;;;;;;;5.44;72.15;98863.69;5002767;28;20042;-61
2021/12/07 10:41:38;;;;;;;9.50;3.03;;;;;;;5.64;69.85;98856.34;5005334;28;20069;-61
2021/12/07 10:44:12;;;;;;;7.47;2.70;;;;;;;5.49;70.66;98862.03;5009125;28;20460;-60
2021/12/07 10:46:58;;;;;;;9.20;3.13;;;;;;;5.69;69.91;98859.16;5006772;28;20041;-61
2021/12/07 10:49:29;;;;;;;19.70;3.75;;;;;;;5.74;69.96;98840.72;5007789;28;20720;-61
2021/12/07 10:52:26;;;;;;;12.23;3.20;;;;;;;5.56;69.41;98848.66;5004163;28;20041;-61
2021/12/07 10:55:12;;;;;;;9.45;2.90;;;;;;;5.56;69.85;98856.63;5007505;28;20046;-61
2021/12/07 10:58:07;;;;;;;14.63;3.28;;;;;;;5.27;70.49;98842.19;5002848;28;20054;-61
2021/12/07 11:00:40;;;;;;;10.20;2.80;;;;;;;5.09;71.69;98846.41;5001186;28;20092;-61
2021/12/07 11:03:19;;;;;;;11.25;5.85;;;;;;;5.02;71.48;98860.72;5003550;28;20029;-61
2021/12/07 11:05:50;;;;;;;10.57;3.53;;;;;;;4.19;75.02;98859.75;5002460;28;20475;-62
2021/12/07 11:08:15;;;;;;;19.58;9.25;;;;;;;4.22;75.11;98863.81;5003467;28;20038;-61
2021/12/07 11:10:46;;;;;;;16.67;6.32;;;;;;;3.85;75.90;98855.59;4994865;28;20065;-61
2021/12/07 11:13:19;;;;;;;11.63;3.60;;;;;;;3.99;76.31;98857.16;5005217;28;20022;-61
2021/12/07 11:15:53;;;;;;;12.23;3.08;;;;;;;4.59;74.64;98856.09;5006431;28;20045;-61
2021/12/07 11:18:24;;;;;;;8.40;2.50;;;;;;;4.36;73.16;98848.66;5003122;28;20073;-61
2021/12/07 11:20:50;;;;;;;;;;;;;;;4.13;74.20;98849.19;5009402;28;20092;-61
2021/12/07 11:23:36;;;;;;;11.23;3.25;;;;;;;3.82;75.33;98842.72;5006553;28;19921;-60
2021/12/07 11:31:37;;;;;;;10.60;2.63;;;;;;;3.65;76.90;98837.88;5011589;28;20049;-61
2021/12/07 11:34:06;;;;;;;13.02;3.92;;;;;;;3.63;77.84;98836.47;5007262;28;20030;-61
2021/12/07 11:36:35;;;;;;;12.18;4.57;;;;;;;3.33;78.28;98836.91;5005827;28;20050;-61
2021/12/07 11:39:00;;;;;;;11.20;3.00;;;;;;;3.44;76.74;98822.22;5006617;28;20026;-61
2021/12/07 11:41:33;;;;;;;8.32;3.00;;;;;;;3.34;76.53;98819.19;5025479;28;20103;-61
2021/12/07 11:44:08;;;;;;;9.75;3.78;;;;;;;3.44;75.90;98814.28;5010508;28;20038;-61
2021/12/07 11:46:37;;;;;;;7.00;2.80;;;;;;;3.28;76.10;98820.00;5006608;28;20038;-61
2021/12/07 11:49:23;;;;;;;7.15;2.15;;;;;;;3.19;75.79;98822.84;5016992;28;20052;-61
2021/12/07 11:51:50;;;;;;;13.02;3.20;;;;;;;3.39;77.55;98809.59;5009646;28;20046;-61
2021/12/07 11:54:16;;;;;;;10.35;2.47;;;;;;;3.47;77.18;98808.59;5006915;28;20034;-61
2021/12/07 11:56:42;;;;;;;19.90;9.07;;;;;;;3.50;77.16;98805.50;5005632;28;20512;-61
2021/12/07 11:59:08;;;;;;;19.75;3.08;;;;;;;3.58;77.11;98794.69;5007072;28;20029;-61
2021/12/07 12:01:33;;;;;;;13.20;6.30;;;;;;;3.70;76.24;98788.75;5013018;28;20152;-62
2021/12/07 12:03:59;;;;;;;8.80;2.70;;;;;;;3.66;75.71;98785.69;5012258;28;20069;-61
2021/12/07 12:06:25;;;;;;;10.05;2.67;;;;;;;3.80;75.58;98778.53;5004550;28;20156;-61
2021/12/07 12:08:51;;;;;;;7.60;2.60;;;;;;;3.95;75.53;98765.81;5006066;28;20527;-61
2021/12/07 12:11:26;;;;;;;10.48;2.63;;;;;;;4.04;76.00;98771.69;5012174;28;20037;-59
2021/12/07 12:14:20;;;;;;;20.13;4.60;;;;;;;3.83;74.39;98770.94;5011542;28;20519;-61
2021/12/07 12:17:12;;;;;;;6.22;3.05;;;;;;;3.70;75.84;98768.34;5005837;28;20060;-61
2021/12/07 12:20:15;;;;;;;8.80;3.28;;;;;;;3.63;75.34;98764.91;5015945;28;20042;-59
2021/12/07 12:22:45;;;;;;;13.35;2.50;;;;;;;3.67;76.23;98753.69;5017239;28;20062;-59
2021/12/07 12:25:13;;;;;;;8.02;3.05;;;;;;;3.58;74.77;98767.38;5005323;28;20032;-59
2021/12/07 12:27:39;;;;;;;8.60;3.95;;;;;;;3.61;74.30;98764.31;5008585;28;20038;-60
2021/12/07 12:30:19;;;;;;;9.48;2.40;;;;;;;3.36;73.90;98761.50;5012096;28;20786;-60
2021/12/07 12:32:45;;;;;;;;;;;;;;;3.51;74.44;98762.09;5005454;28;20140;-60
2021/12/07 12:35:11;;;;;;;8.55;2.15;;;;;;;3.48;74.47;98754.56;5005200;28;19961;-59
2021/12/07 12:37:37;;;;;;;12.32;2.58;;;;;;;3.61;75.17;98743.91;5005632;28;20112;-60
2021/12/07 12:40:26;;;;;;;7.25;3.35;;;;;;;3.64;76.34;98751.47;5005646;28;20719;-60
2021/12/07 12:42:52;;;;;;;15.57;5.45;;;;;;;3.87;76.32;98747.50;5009497;28;20109;-61
2021/12/07 12:45:27;;;;;;;12.48;3.90;;;;;;;3.93;77.59;98733.38;5005173;28;20666;-61
2021/12/07 12:48:01;;;;;;;13.25;3.55;;;;;;;3.85;76.29;98738.94;5011965;28;20065;-61
2021/12/07 12:50:37;;;;;;;19.17;4.07;;;;;;;3.86;76.71;98736.06;5009686;28;20729;-61
2021/12/07 12:53:05;;;;;;;17.58;10.52;;;;;;;3.72;77.69;98736.31;5008023;28;20037;-61
2021/12/07 12:55:33;;;;;;;9.77;4.05;;;;;;;3.77;78.92;98725.91;5005328;28;20135;-60
2021/12/07 12:58:00;;;;;;;10.15;4.22;;;;;;;3.85;78.53;98733.63;5009577;28;20507;-60
2021/12/07 13:00:46;;;;;;;12.48;3.38;;;;;;;3.74;77.95;98726.31;5004048;28;20034;-60
2021/12/07 13:03:11;;;;;;;12.63;4.57;;;;;;;3.60;77.63;98720.28;5004012;28;20075;-61
2021/12/07 13:05:42;;;;;;;29.33;6.88;;;;;;;3.72;77.83;98717.78;5004664;28;20037;-61
2021/12/07 13:08:14;;;;;;;19.15;6.25;;;;;;;3.79;78.04;98723.88;5004459;28;20212;-61
2021/12/07 13:10:59;;;;;;;52.85;15.75;;;;;;;3.85;77.90;98713.25;5010568;28;20049;-61
2021/12/07 13:13:35;;;;;;;11.98;3.40;;;;;;;3.81;76.46;98711.22;5005548;28;20265;-61
2021/12/07 13:16:15;;;;;;;35.53;11.18;;;;;;;3.94;75.62;98711.13;5004744;28;20145;-60
2021/12/07 13:18:41;;;;;;;15.00;3.42;;;;;;;3.88;75.71;98710.16;5010469;28;20049;-61
2021/12/07 13:21:27;;;;;;;13.15;3.60;;;;;;;3.69;76.02;98713.69;5003802;28;20038;-61
2021/12/07 13:24:00;;;;;;;11.82;3.05;;;;;;;3.52;76.83;98701.94;5004585;28;20033;-60
2021/12/07 13:26:26;;;;;;;9.02;2.28;;;;;;;3.52;77.08;98697.47;5017492;28;20318;-60
2021/12/07 13:29:14;;;;;;;8.68;2.45;;;;;;;3.55;78.74;98690.94;5004351;28;20048;-60
2021/12/07 13:31:44;;;;;;;7.88;2.65;;;;;;;3.48;78.80;98674.25;5000815;28;20042;-62
2021/12/07 13:34:10;;;;;;;7.88;2.72;;;;;;;3.57;78.17;98673.81;5011592;28;20048;-60